createdAt,value
2023-02-24T00:04:56.911Z,43.35
2023-02-24T00:10:04.218Z,34.97
2023-02-24T00:15:10.786Z,42.03
2023-02-24T00:20:18.202Z,36.35
2023-02-24T00:25:24.453Z,42.60
2023-02-24T00:30:33.125Z,39.78
2023-02-24T00:35:39.834Z,41.08
2023-02-24T00:40:49.501Z,38.10
2023-02-24T00:45:58.287Z,35.83
2023-02-24T00:51:04.822Z,39.35
2023-02-24T00:56:14.991Z,37.13
2023-02-24T01:01:23.558Z,39.90
2023-02-24T01:06:31.329Z,41.75
2023-02-24T01:11:59.268Z,41.72
2023-02-24T01:17:06.044Z,42.65
2023-02-24T01:22:15.859Z,51.45
2023-02-24T01:27:22.175Z,50.35
2023-02-24T01:32:30.434Z,47.95
2023-02-24T01:37:36.951Z,54.42
2023-02-24T01:42:48.739Z,55.55
2023-02-24T01:47:59.693Z,59.13
2023-02-24T01:53:08.279Z,55.60
2023-02-24T01:58:20.059Z,52.38
2023-02-24T02:03:31.488Z,58.70
2023-02-24T02:08:42.289Z,62.83
2023-02-24T02:14:04.826Z,70.00
2023-02-24T02:19:38.304Z,71.03
2023-02-24T02:25:08.840Z,69.25
2023-02-24T02:30:51.150Z,63.10
2023-02-24T02:36:15.130Z,67.30
2023-02-24T02:41:40.439Z,63.10
2023-02-24T02:47:10.611Z,66.78
2023-02-24T02:52:25.899Z,68.57
2023-02-24T02:57:35.223Z,65.63
2023-02-24T03:02:46.828Z,60.17
2023-02-24T03:07:58.131Z,64.65
2023-02-24T03:13:08.716Z,62.58
2023-02-24T03:18:37.892Z,57.40
2023-02-24T03:23:50.597Z,63.60
2023-02-24T03:29:19.794Z,63.55
2023-02-24T03:34:30.276Z,61.20
2023-02-24T03:39:37.851Z,62.70
2023-02-24T03:44:59.529Z,56.60
2023-02-24T03:50:17.930Z,59.50
2023-02-24T03:55:44.584Z,58.15
2023-02-24T04:01:00.000Z,59.58
2023-02-24T04:06:13.083Z,55.03
2023-02-24T04:11:30.774Z,50.13
2023-02-24T04:16:46.682Z,55.28
2023-02-24T04:21:54.086Z,53.85
2023-02-24T04:27:07.810Z,51.72
2023-02-24T04:32:23.422Z,53.33
2023-02-24T04:37:35.457Z,44.55
2023-02-24T04:42:50.937Z,46.80
2023-02-24T04:48:02.430Z,48.78
2023-02-24T04:53:17.160Z,49.97
2023-02-24T04:58:29.539Z,51.50
2023-02-24T05:03:37.028Z,58.22
2023-02-24T05:08:43.253Z,53.35
2023-02-24T05:13:52.618Z,67.60
2023-02-24T05:19:19.048Z,62.22
2023-02-24T05:24:27.577Z,61.92
2023-02-24T05:29:36.156Z,54.13
2023-02-24T05:34:44.464Z,72.43
2023-02-24T05:39:50.629Z,75.05
2023-02-24T05:50:02.909Z,36.55
2023-02-24T06:00:18.316Z,55.20
2023-02-24T06:05:27.514Z,37.50
2023-02-24T06:10:35.935Z,61.65
2023-02-24T06:15:43.201Z,69.13
2023-02-24T06:20:52.906Z,66.82
2023-02-24T06:26:03.534Z,70.35
2023-02-24T06:31:10.049Z,73.05
2023-02-24T06:36:20.114Z,64.65
2023-02-24T06:41:30.683Z,33.33
2023-02-24T06:46:36.660Z,44.47
2023-02-24T06:51:44.670Z,39.42
2023-02-24T06:56:54.284Z,58.47
2023-02-24T07:02:05.019Z,31.85
2023-02-24T07:07:12.305Z,29.95
2023-02-24T07:12:22.510Z,26.20
2023-02-24T07:17:32.404Z,34.47
2023-02-24T07:22:38.790Z,26.33
2023-02-24T07:32:52.583Z,15.75
2023-02-24T07:38:06.143Z,27.55
2023-02-24T07:43:12.381Z,22.63
2023-02-24T07:48:18.253Z,21.45
2023-02-24T07:53:24.441Z,11.02
2023-02-24T08:03:48.671Z,17.65
2023-02-24T08:09:01.100Z,19.73
2023-02-24T08:14:15.440Z,15.40
2023-02-24T08:19:26.466Z,15.35
2023-02-24T08:25:00.249Z,11.73
2023-02-24T08:30:06.937Z,15.75
2023-02-24T08:35:18.929Z,19.70
2023-02-24T08:40:33.848Z,14.85
2023-02-24T08:45:42.807Z,13.38
2023-02-24T08:50:48.418Z,17.70
2023-02-24T08:55:58.610Z,12.67
2023-02-24T09:01:28.043Z,11.43
2023-02-24T09:06:48.795Z,14.38
2023-02-24T09:12:00.932Z,15.43
2023-02-24T09:17:22.334Z,13.02
2023-02-24T09:22:42.318Z,11.50
2023-02-24T09:27:53.855Z,8.35
2023-02-24T09:33:02.687Z,11.23
2023-02-24T09:38:08.988Z,11.23
2023-02-24T09:43:32.000Z,6.38
2023-02-24T09:48:56.078Z,8.55
2023-02-24T09:54:19.535Z,7.75
2023-02-24T10:00:02.650Z,9.30
2023-02-24T10:05:40.138Z,11.38
2023-02-24T10:11:01.946Z,9.77
2023-02-24T10:16:14.593Z,9.98
2023-02-24T10:21:49.911Z,12.02
2023-02-24T10:27:08.497Z,10.80
2023-02-24T10:32:30.697Z,11.75
2023-02-24T10:37:37.519Z,9.27
2023-02-24T10:42:47.222Z,11.15
2023-02-24T10:47:59.765Z,11.18
2023-02-24T10:53:46.066Z,9.80
2023-02-24T10:59:44.823Z,9.48
2023-02-24T11:05:00.773Z,10.13
2023-02-24T11:10:13.823Z,19.17
2023-02-24T11:16:02.268Z,76.15
2023-02-24T11:21:20.201Z,93.00
2023-02-24T11:26:34.654Z,75.10
2023-02-24T11:31:59.354Z,91.18
2023-02-24T11:37:20.141Z,87.63
2023-02-24T11:42:50.161Z,33.70
2023-02-24T11:48:06.594Z,366.95
2023-02-24T11:59:06.873Z,157.77
2023-02-24T12:04:38.332Z,122.05
2023-02-24T12:10:00.440Z,104.88
2023-02-24T12:15:39.549Z,119.38
2023-02-24T12:21:03.953Z,58.58
2023-02-24T12:26:34.253Z,60.92
2023-02-24T12:32:11.262Z,39.83
2023-02-24T12:37:31.885Z,33.38
2023-02-24T12:43:08.474Z,30.40
2023-02-24T12:48:50.976Z,27.85
2023-02-24T12:54:50.573Z,25.02
2023-02-24T13:00:08.453Z,22.13
2023-02-24T13:05:59.590Z,25.42
2023-02-24T13:11:43.519Z,21.50
2023-02-24T13:17:01.300Z,17.10
2023-02-24T13:22:28.865Z,16.67
2023-02-24T13:27:54.218Z,11.73
2023-02-24T13:33:35.408Z,16.75
2023-02-24T13:38:53.420Z,11.90
2023-02-24T13:44:34.348Z,13.40
2023-02-24T13:50:25.281Z,11.98
2023-02-24T13:56:29.994Z,14.02
2023-02-24T14:08:03.395Z,10.13
2023-02-24T14:13:43.930Z,13.80
2023-02-24T14:19:17.144Z,15.25
2023-02-24T14:24:51.398Z,12.10
2023-02-24T14:30:14.326Z,13.65
2023-02-24T14:48:04.724Z,10.68
2023-02-24T14:59:23.623Z,13.45
2023-02-24T15:04:48.811Z,11.80
2023-02-24T15:10:03.826Z,14.93
2023-02-24T15:15:44.118Z,11.95
2023-02-24T15:21:09.340Z,11.73
2023-02-24T15:26:38.739Z,10.55
2023-02-24T15:32:01.671Z,12.10
2023-02-24T15:37:50.092Z,12.70
2023-02-24T15:43:17.787Z,12.93
2023-02-24T15:48:33.518Z,8.93
2023-02-24T15:53:46.572Z,7.93
2023-02-24T15:58:56.341Z,8.20
2023-02-24T16:04:10.805Z,8.18
2023-02-24T16:09:18.848Z,7.22
2023-02-24T16:14:26.850Z,9.23
2023-02-24T16:19:38.863Z,5.40
2023-02-24T16:24:45.561Z,6.25
2023-02-24T16:29:52.644Z,10.95
2023-02-24T16:34:59.229Z,6.90
2023-02-24T16:40:12.078Z,5.47
2023-02-24T16:45:18.199Z,6.13
2023-02-24T16:55:38.574Z,7.57
2023-02-24T17:00:47.785Z,6.55
2023-02-24T17:05:54.313Z,7.88
2023-02-24T17:11:00.502Z,7.28
2023-02-24T17:16:06.657Z,9.98
2023-02-24T17:26:20.230Z,6.20
2023-02-24T17:31:29.886Z,6.13
2023-02-24T17:36:36.063Z,5.85
2023-02-24T17:41:45.002Z,6.18
2023-02-24T17:51:56.810Z,4.93
2023-02-24T17:57:03.058Z,7.22
2023-02-24T18:02:09.476Z,8.05
2023-02-24T18:07:15.853Z,7.60
2023-02-24T18:17:28.195Z,5.97
2023-02-24T18:22:34.135Z,5.22
2023-02-24T18:27:40.243Z,5.88
2023-02-24T18:32:46.973Z,6.03
2023-02-24T18:38:00.269Z,5.82
2023-02-24T18:43:06.667Z,7.72
2023-02-24T18:48:12.973Z,5.50
2023-02-24T18:53:19.162Z,5.80
2023-02-24T18:58:25.171Z,7.80
2023-02-24T19:03:31.296Z,6.28
2023-02-24T19:08:37.274Z,11.10
2023-02-24T19:13:43.790Z,11.80
2023-02-24T19:18:57.081Z,6.72
2023-02-24T19:24:05.209Z,7.53
2023-02-24T19:29:11.490Z,10.63
2023-02-24T19:34:17.518Z,12.70
2023-02-24T19:39:23.828Z,7.07
2023-02-24T19:44:29.795Z,8.52
2023-02-24T19:49:36.045Z,10.32
2023-02-24T19:54:42.152Z,14.68
2023-02-24T19:59:53.356Z,11.60
2023-02-24T20:05:00.476Z,11.90
2023-02-24T20:10:07.524Z,8.57
2023-02-24T20:15:14.013Z,12.00
2023-02-24T20:20:20.078Z,13.63
2023-02-24T20:25:26.029Z,13.68
2023-02-24T20:30:31.777Z,13.88
2023-02-24T20:35:41.623Z,12.43
2023-02-24T20:40:47.562Z,8.55
2023-02-24T20:45:53.396Z,12.13
2023-02-24T20:50:59.142Z,11.10
2023-02-24T20:56:09.268Z,9.43
2023-02-24T21:01:15.521Z,10.82
2023-02-24T21:06:21.986Z,10.82
2023-02-24T21:16:36.753Z,11.48
2023-02-24T21:21:42.774Z,9.93
2023-02-24T21:26:49.041Z,10.82
2023-02-24T21:31:54.934Z,7.10
2023-02-24T21:37:03.010Z,9.32
2023-02-24T21:42:13.537Z,7.68
2023-02-24T21:47:21.892Z,6.75
2023-02-24T21:52:28.246Z,11.38
2023-02-24T21:57:42.095Z,8.45
2023-02-24T22:02:50.827Z,11.88
2023-02-24T22:07:58.476Z,7.97
2023-02-24T22:13:04.602Z,12.27
2023-02-24T22:18:10.752Z,7.47
2023-02-24T22:23:16.645Z,7.00
2023-02-24T22:28:22.707Z,12.80
2023-02-24T22:33:29.366Z,13.52
2023-02-24T22:38:37.438Z,11.93
2023-02-24T22:43:44.250Z,11.70
2023-02-24T22:48:51.783Z,11.00
2023-02-24T22:53:58.342Z,10.27
2023-02-24T23:04:14.411Z,12.20
2023-02-24T23:09:21.398Z,12.05
2023-02-24T23:14:28.378Z,13.00
2023-02-24T23:19:34.186Z,9.52
2023-02-24T23:24:40.222Z,11.77
2023-02-24T23:29:45.937Z,12.20
2023-02-24T23:34:52.084Z,13.27
2023-02-24T23:39:58.122Z,14.77
2023-02-24T23:45:05.308Z,14.70
2023-02-24T23:50:11.901Z,15.50
2023-02-24T23:55:17.999Z,11.80
